sensor_id;sensor_type;location;lat;lon;timestamp;P1;durP1;ratioP1;P2;durP2;ratioP2
29002;SDS011;16102;57.138;-2.118;2022-12-11T00:00:09;4.13;;;0.70;;
29002;SDS011;16102;57.138;-2.118;2022-12-11T00:02:37;9.30;;;0.57;;
29002;SDS011;16102;57.138;-2.118;2022-12-11T00:05:04;0.28;;;0.25;;
29002;SDS011;16102;57.138;-2.118;2022-12-11T00:07:32;1.48;;;0.40;;
29002;SDS011;16102;57.138;-2.118;2022-12-11T00:09:59;7.38;;;1.13;;
29002;SDS011;16102;57.138;-2.118;2022-12-11T00:12:28;8.13;;;1.33;;
29002;SDS011;16102;57.138;-2.118;2022-12-11T00:14:55;12.75;;;1.33;;
29002;SDS011;16102;57.138;-2.118;2022-12-11T00:17:22;5.55;;;0.75;;
29002;SDS011;16102;57.138;-2.118;2022-12-11T00:19:49;1.13;;;0.40;;
29002;SDS011;16102;57.138;-2.118;2022-12-11T00:22:17;1.15;;;0.75;;
29002;SDS011;16102;57.138;-2.118;2022-12-11T00:24:44;3.03;;;0.98;;
29002;SDS011;16102;57.138;-2.118;2022-12-11T00:27:11;5.07;;;0.80;;
29002;SDS011;16102;57.138;-2.118;2022-12-11T00:29:38;5.13;;;0.90;;
29002;SDS011;16102;57.138;-2.118;2022-12-11T00:32:05;9.38;;;0.77;;
29002;SDS011;16102;57.138;-2.118;2022-12-11T00:34:32;2.47;;;1.20;;
29002;SDS011;16102;57.138;-2.118;2022-12-11T00:36:59;1.05;;;0.47;;
29002;SDS011;16102;57.138;-2.118;2022-12-11T00:39:26;3.55;;;0.68;;
29002;SDS011;16102;57.138;-2.118;2022-12-11T00:41:53;1.10;;;0.70;;
29002;SDS011;16102;57.138;-2.118;2022-12-11T00:44:20;1.40;;;0.20;;
29002;SDS011;16102;57.138;-2.118;2022-12-11T00:46:48;2.38;;;0.32;;
29002;SDS011;16102;57.138;-2.118;2022-12-11T00:49:15;6.00;;;0.80;;
29002;SDS011;16102;57.138;-2.118;2022-12-11T00:51:42;4.50;;;0.98;;
29002;SDS011;16102;57.138;-2.118;2022-12-11T00:54:10;3.65;;;0.60;;
29002;SDS011;16102;57.138;-2.118;2022-12-11T00:56:36;3.17;;;0.70;;
29002;SDS011;16102;57.138;-2.118;2022-12-11T00:59:03;3.97;;;0.70;;
29002;SDS011;16102;57.138;-2.118;2022-12-11T01:01:31;2.40;;;0.60;;
29002;SDS011;16102;57.138;-2.118;2022-12-11T01:03:58;3.85;;;0.63;;
29002;SDS011;16102;57.138;-2.118;2022-12-11T01:06:26;1.20;;;0.30;;
29002;SDS011;16102;57.138;-2.118;2022-12-11T01:08:55;4.68;;;0.65;;
29002;SDS011;16102;57.138;-2.118;2022-12-11T01:11:41;5.35;;;0.65;;
29002;SDS011;16102;57.138;-2.118;2022-12-11T01:14:09;4.50;;;0.60;;
29002;SDS011;16102;57.138;-2.118;2022-12-11T01:16:37;8.57;;;0.60;;
29002;SDS011;16102;57.138;-2.118;2022-12-11T01:19:04;3.65;;;0.80;;
29002;SDS011;16102;57.138;-2.118;2022-12-11T01:21:31;2.17;;;0.55;;
29002;SDS011;16102;57.138;-2.118;2022-12-11T01:23:58;3.70;;;0.88;;
29002;SDS011;16102;57.138;-2.118;2022-12-11T01:26:25;6.03;;;0.77;;
29002;SDS011;16102;57.138;-2.118;2022-12-11T01:28:52;2.47;;;0.52;;
29002;SDS011;16102;57.138;-2.118;2022-12-11T01:31:19;5.43;;;0.93;;
29002;SDS011;16102;57.138;-2.118;2022-12-11T01:33:46;1.60;;;0.40;;
29002;SDS011;16102;57.138;-2.118;2022-12-11T01:36:17;5.47;;;0.52;;
29002;SDS011;16102;57.138;-2.118;2022-12-11T01:38:46;3.38;;;0.40;;
29002;SDS011;16102;57.138;-2.118;2022-12-11T01:41:14;2.40;;;0.60;;
29002;SDS011;16102;57.138;-2.118;2022-12-11T01:46:27;3.25;;;0.63;;
29002;SDS011;16102;57.138;-2.118;2022-12-11T01:48:55;4.07;;;0.73;;
29002;SDS011;16102;57.138;-2.118;2022-12-11T01:51:24;1.90;;;0.73;;
29002;SDS011;16102;57.138;-2.118;2022-12-11T01:53:57;4.50;;;0.63;;
29002;SDS011;16102;57.138;-2.118;2022-12-11T01:56:28;3.72;;;0.93;;
29002;SDS011;16102;57.138;-2.118;2022-12-11T01:59:00;5.72;;;0.70;;
29002;SDS011;16102;57.138;-2.118;2022-12-11T02:02:16;3.28;;;0.60;;
29002;SDS011;16102;57.138;-2.118;2022-12-11T02:04:35;3.80;;;1.10;;
29002;SDS011;16102;57.138;-2.118;2022-12-11T02:07:04;2.17;;;0.90;;
29002;SDS011;16102;57.138;-2.118;2022-12-11T02:09:32;3.30;;;1.13;;
29002;SDS011;16102;57.138;-2.118;2022-12-11T02:14:38;5.22;;;0.68;;
29002;SDS011;16102;57.138;-2.118;2022-12-11T02:17:14;1.80;;;1.00;;
29002;SDS011;16102;57.138;-2.118;2022-12-11T02:22:57;3.45;;;0.65;;
29002;SDS011;16102;57.138;-2.118;2022-12-11T02:28:43;3.50;;;0.80;;
29002;SDS011;16102;57.138;-2.118;2022-12-11T02:31:20;5.18;;;1.00;;
29002;SDS011;16102;57.138;-2.118;2022-12-11T02:36:37;4.82;;;1.73;;
29002;SDS011;16102;57.138;-2.118;2022-12-11T02:39:09;2.20;;;0.45;;
29002;SDS011;16102;57.138;-2.118;2022-12-11T02:41:39;3.78;;;0.65;;
29002;SDS011;16102;57.138;-2.118;2022-12-11T02:44:12;3.40;;;0.75;;
29002;SDS011;16102;57.138;-2.118;2022-12-11T02:46:41;4.60;;;0.77;;
29002;SDS011;16102;57.138;-2.118;2022-12-11T02:49:10;4.88;;;0.40;;
29002;SDS011;16102;57.138;-2.118;2022-12-11T02:51:39;2.58;;;0.80;;
29002;SDS011;16102;57.138;-2.118;2022-12-11T02:54:09;6.68;;;1.15;;
29002;SDS011;16102;57.138;-2.118;2022-12-11T02:56:50;5.45;;;0.73;;
29002;SDS011;16102;57.138;-2.118;2022-12-11T02:59:25;1.27;;;0.50;;
29002;SDS011;16102;57.138;-2.118;2022-12-11T03:01:56;6.85;;;0.90;;
29002;SDS011;16102;57.138;-2.118;2022-12-11T03:04:23;4.00;;;0.80;;
29002;SDS011;16102;57.138;-2.118;2022-12-11T03:06:52;2.03;;;0.60;;
29002;SDS011;16102;57.138;-2.118;2022-12-11T03:09:26;1.73;;;0.50;;
29002;SDS011;16102;57.138;-2.118;2022-12-11T03:11:53;7.35;;;0.65;;
29002;SDS011;16102;57.138;-2.118;2022-12-11T03:14:20;3.47;;;0.80;;
29002;SDS011;16102;57.138;-2.118;2022-12-11T03:19:27;3.95;;;0.63;;
29002;SDS011;16102;57.138;-2.118;2022-12-11T03:22:31;1.98;;;0.77;;
29002;SDS011;16102;57.138;-2.118;2022-12-11T03:25:09;4.95;;;0.77;;
29002;SDS011;16102;57.138;-2.118;2022-12-11T03:27:50;3.08;;;0.43;;
29002;SDS011;16102;57.138;-2.118;2022-12-11T03:30:24;3.13;;;0.80;;
29002;SDS011;16102;57.138;-2.118;2022-12-11T03:32:57;1.33;;;0.40;;
29002;SDS011;16102;57.138;-2.118;2022-12-11T03:35:50;0.98;;;0.50;;
29002;SDS011;16102;57.138;-2.118;2022-12-11T03:38:27;2.45;;;0.63;;
29002;SDS011;16102;57.138;-2.118;2022-12-11T03:41:00;2.17;;;0.73;;
29002;SDS011;16102;57.138;-2.118;2022-12-11T03:43:28;1.20;;;0.50;;
29002;SDS011;16102;57.138;-2.118;2022-12-11T03:45:57;5.10;;;0.82;;
29002;SDS011;16102;57.138;-2.118;2022-12-11T03:48:27;1.38;;;0.57;;
29002;SDS011;16102;57.138;-2.118;2022-12-11T03:51:01;5.85;;;0.85;;
29002;SDS011;16102;57.138;-2.118;2022-12-11T03:53:32;4.40;;;1.08;;
29002;SDS011;16102;57.138;-2.118;2022-12-11T03:56:01;2.38;;;0.73;;
29002;SDS011;16102;57.138;-2.118;2022-12-11T03:58:32;3.50;;;0.80;;
29002;SDS011;16102;57.138;-2.118;2022-12-11T04:01:07;5.97;;;0.90;;
29002;SDS011;16102;57.138;-2.118;2022-12-11T04:03:35;4.45;;;0.95;;
29002;SDS011;16102;57.138;-2.118;2022-12-11T04:06:02;4.72;;;0.70;;
29002;SDS011;16102;57.138;-2.118;2022-12-11T04:08:30;7.60;;;1.02;;
29002;SDS011;16102;57.138;-2.118;2022-12-11T04:10:57;7.28;;;1.55;;
29002;SDS011;16102;57.138;-2.118;2022-12-11T04:13:42;11.60;;;1.38;;
29002;SDS011;16102;57.138;-2.118;2022-12-11T04:16:09;2.97;;;0.93;;
29002;SDS011;16102;57.138;-2.118;2022-12-11T04:18:36;5.80;;;0.90;;
29002;SDS011;16102;57.138;-2.118;2022-12-11T04:21:22;3.10;;;0.50;;
29002;SDS011;16102;57.138;-2.118;2022-12-11T04:24:08;4.65;;;0.73;;
29002;SDS011;16102;57.138;-2.118;2022-12-11T04:26:42;3.78;;;0.80;;
29002;SDS011;16102;57.138;-2.118;2022-12-11T04:29:11;2.53;;;0.52;;
29002;SDS011;16102;57.138;-2.118;2022-12-11T04:31:38;3.42;;;1.02;;
29002;SDS011;16102;57.138;-2.118;2022-12-11T04:34:06;2.85;;;0.50;;
29002;SDS011;16102;57.138;-2.118;2022-12-11T04:36:33;5.68;;;0.40;;
29002;SDS011;16102;57.138;-2.118;2022-12-11T04:39:00;1.42;;;0.30;;
29002;SDS011;16102;57.138;-2.118;2022-12-11T04:41:27;3.78;;;0.45;;
29002;SDS011;16102;57.138;-2.118;2022-12-11T04:43:54;2.15;;;1.02;;
29002;SDS011;16102;57.138;-2.118;2022-12-11T04:46:22;4.53;;;0.40;;
29002;SDS011;16102;57.138;-2.118;2022-12-11T04:48:50;5.30;;;1.05;;
29002;SDS011;16102;57.138;-2.118;2022-12-11T04:51:23;8.95;;;0.90;;
29002;SDS011;16102;57.138;-2.118;2022-12-11T04:53:50;7.65;;;0.88;;
29002;SDS011;16102;57.138;-2.118;2022-12-11T04:56:18;3.95;;;0.70;;
29002;SDS011;16102;57.138;-2.118;2022-12-11T04:58:45;1.95;;;0.60;;
29002;SDS011;16102;57.138;-2.118;2022-12-11T05:01:18;4.82;;;0.50;;
29002;SDS011;16102;57.138;-2.118;2022-12-11T05:03:46;1.98;;;1.02;;
29002;SDS011;16102;57.138;-2.118;2022-12-11T05:06:14;3.53;;;0.68;;
29002;SDS011;16102;57.138;-2.118;2022-12-11T05:08:41;6.97;;;1.00;;
29002;SDS011;16102;57.138;-2.118;2022-12-11T05:11:10;3.33;;;0.82;;
29002;SDS011;16102;57.138;-2.118;2022-12-11T05:13:38;6.45;;;0.70;;
29002;SDS011;16102;57.138;-2.118;2022-12-11T05:16:06;2.63;;;0.63;;
29002;SDS011;16102;57.138;-2.118;2022-12-11T05:18:35;4.10;;;0.73;;
29002;SDS011;16102;57.138;-2.118;2022-12-11T05:21:04;3.45;;;0.77;;
29002;SDS011;16102;57.138;-2.118;2022-12-11T05:23:33;3.80;;;0.47;;
29002;SDS011;16102;57.138;-2.118;2022-12-11T05:26:02;1.73;;;0.40;;
29002;SDS011;16102;57.138;-2.118;2022-12-11T05:28:31;4.10;;;0.60;;
29002;SDS011;16102;57.138;-2.118;2022-12-11T05:31:05;2.13;;;0.40;;
29002;SDS011;16102;57.138;-2.118;2022-12-11T05:33:34;2.28;;;0.52;;
29002;SDS011;16102;57.138;-2.118;2022-12-11T05:36:01;3.22;;;0.68;;
29002;SDS011;16102;57.138;-2.118;2022-12-11T05:38:28;3.75;;;0.52;;
29002;SDS011;16102;57.138;-2.118;2022-12-11T05:41:02;6.00;;;1.00;;
29002;SDS011;16102;57.138;-2.118;2022-12-11T05:43:31;5.57;;;0.57;;
29002;SDS011;16102;57.138;-2.118;2022-12-11T05:46:10;2.17;;;0.57;;
29002;SDS011;16102;57.138;-2.118;2022-12-11T05:48:46;0.85;;;0.43;;
29002;SDS011;16102;57.138;-2.118;2022-12-11T05:51:16;0.93;;;0.35;;
29002;SDS011;16102;57.138;-2.118;2022-12-11T05:53:44;2.65;;;0.57;;
29002;SDS011;16102;57.138;-2.118;2022-12-11T05:56:34;2.10;;;0.47;;
29002;SDS011;16102;57.138;-2.118;2022-12-11T05:59:00;7.10;;;0.93;;
29002;SDS011;16102;57.138;-2.118;2022-12-11T06:01:30;2.75;;;0.70;;
29002;SDS011;16102;57.138;-2.118;2022-12-11T06:04:06;2.38;;;0.50;;
29002;SDS011;16102;57.138;-2.118;2022-12-11T06:06:35;1.33;;;0.70;;
29002;SDS011;16102;57.138;-2.118;2022-12-11T06:09:03;0.82;;;0.20;;
29002;SDS011;16102;57.138;-2.118;2022-12-11T06:11:31;4.30;;;0.52;;
29002;SDS011;16102;57.138;-2.118;2022-12-11T06:14:00;3.90;;;0.77;;
29002;SDS011;16102;57.138;-2.118;2022-12-11T06:16:28;2.58;;;0.43;;
29002;SDS011;16102;57.138;-2.118;2022-12-11T06:18:55;2.63;;;0.32;;
29002;SDS011;16102;57.138;-2.118;2022-12-11T06:21:25;2.25;;;0.47;;
29002;SDS011;16102;57.138;-2.118;2022-12-11T06:23:54;8.35;;;2.45;;
29002;SDS011;16102;57.138;-2.118;2022-12-11T06:26:23;1.98;;;0.40;;
29002;SDS011;16102;57.138;-2.118;2022-12-11T06:28:50;2.95;;;0.60;;
29002;SDS011;16102;57.138;-2.118;2022-12-11T06:31:18;2.88;;;0.75;;
29002;SDS011;16102;57.138;-2.118;2022-12-11T06:33:45;1.90;;;0.30;;
29002;SDS011;16102;57.138;-2.118;2022-12-11T06:36:17;1.77;;;0.20;;
29002;SDS011;16102;57.138;-2.118;2022-12-11T06:38:45;0.90;;;0.32;;
29002;SDS011;16102;57.138;-2.118;2022-12-11T06:41:17;0.85;;;0.35;;
29002;SDS011;16102;57.138;-2.118;2022-12-11T06:43:44;2.35;;;0.50;;
29002;SDS011;16102;57.138;-2.118;2022-12-11T06:46:12;2.38;;;0.50;;
29002;SDS011;16102;57.138;-2.118;2022-12-11T06:48:40;1.92;;;0.50;;
29002;SDS011;16102;57.138;-2.118;2022-12-11T06:51:13;2.08;;;0.68;;
29002;SDS011;16102;57.138;-2.118;2022-12-11T06:53:42;4.95;;;0.55;;
29002;SDS011;16102;57.138;-2.118;2022-12-11T06:56:13;1.00;;;0.28;;
29002;SDS011;16102;57.138;-2.118;2022-12-11T06:58:44;5.63;;;0.60;;
29002;SDS011;16102;57.138;-2.118;2022-12-11T07:01:19;1.95;;;0.40;;
29002;SDS011;16102;57.138;-2.118;2022-12-11T07:03:48;4.97;;;0.68;;
29002;SDS011;16102;57.138;-2.118;2022-12-11T07:06:21;1.23;;;0.40;;
29002;SDS011;16102;57.138;-2.118;2022-12-11T07:08:49;4.35;;;0.35;;
29002;SDS011;16102;57.138;-2.118;2022-12-11T07:11:17;3.15;;;0.80;;
29002;SDS011;16102;57.138;-2.118;2022-12-11T07:13:45;2.70;;;0.60;;
29002;SDS011;16102;57.138;-2.118;2022-12-11T07:16:13;1.30;;;0.45;;
29002;SDS011;16102;57.138;-2.118;2022-12-11T07:18:42;3.65;;;0.47;;
29002;SDS011;16102;57.138;-2.118;2022-12-11T07:21:13;1.95;;;0.35;;
29002;SDS011;16102;57.138;-2.118;2022-12-11T07:23:40;2.90;;;0.75;;
29002;SDS011;16102;57.138;-2.118;2022-12-11T07:26:12;2.47;;;1.67;;
29002;SDS011;16102;57.138;-2.118;2022-12-11T07:28:41;3.05;;;0.70;;
29002;SDS011;16102;57.138;-2.118;2022-12-11T07:31:10;1.08;;;0.50;;
29002;SDS011;16102;57.138;-2.118;2022-12-11T07:33:39;3.50;;;0.80;;
29002;SDS011;16102;57.138;-2.118;2022-12-11T07:36:07;2.83;;;0.60;;
29002;SDS011;16102;57.138;-2.118;2022-12-11T07:38:35;6.57;;;0.77;;
29002;SDS011;16102;57.138;-2.118;2022-12-11T07:41:03;4.10;;;0.60;;
29002;SDS011;16102;57.138;-2.118;2022-12-11T07:43:32;1.65;;;0.50;;
29002;SDS011;16102;57.138;-2.118;2022-12-11T07:46:01;2.10;;;0.60;;
29002;SDS011;16102;57.138;-2.118;2022-12-11T07:48:36;8.82;;;0.73;;
29002;SDS011;16102;57.138;-2.118;2022-12-11T07:53:44;5.80;;;0.55;;
29002;SDS011;16102;57.138;-2.118;2022-12-11T07:56:13;4.82;;;0.82;;
29002;SDS011;16102;57.138;-2.118;2022-12-11T07:58:41;1.45;;;0.40;;
29002;SDS011;16102;57.138;-2.118;2022-12-11T08:01:12;3.33;;;0.60;;
29002;SDS011;16102;57.138;-2.118;2022-12-11T08:03:44;3.05;;;0.40;;
29002;SDS011;16102;57.138;-2.118;2022-12-11T08:06:12;3.13;;;0.90;;
29002;SDS011;16102;57.138;-2.118;2022-12-11T08:08:40;3.60;;;0.50;;
29002;SDS011;16102;57.138;-2.118;2022-12-11T08:11:08;5.72;;;0.75;;
29002;SDS011;16102;57.138;-2.118;2022-12-11T08:13:37;4.13;;;0.50;;
29002;SDS011;16102;57.138;-2.118;2022-12-11T08:16:04;1.95;;;0.60;;
29002;SDS011;16102;57.138;-2.118;2022-12-11T08:18:33;1.67;;;0.60;;
29002;SDS011;16102;57.138;-2.118;2022-12-11T08:21:11;1.05;;;0.40;;
29002;SDS011;16102;57.138;-2.118;2022-12-11T08:23:43;3.30;;;0.60;;
29002;SDS011;16102;57.138;-2.118;2022-12-11T08:26:12;1.20;;;0.40;;
29002;SDS011;16102;57.138;-2.118;2022-12-11T08:28:42;3.50;;;0.50;;
29002;SDS011;16102;57.138;-2.118;2022-12-11T08:31:11;2.05;;;0.32;;
29002;SDS011;16102;57.138;-2.118;2022-12-11T08:33:40;2.40;;;0.30;;
29002;SDS011;16102;57.138;-2.118;2022-12-11T08:36:09;2.75;;;0.75;;
29002;SDS011;16102;57.138;-2.118;2022-12-11T08:38:39;2.75;;;0.47;;
29002;SDS011;16102;57.138;-2.118;2022-12-11T08:41:09;0.82;;;0.40;;
29002;SDS011;16102;57.138;-2.118;2022-12-11T08:43:38;4.05;;;0.70;;
29002;SDS011;16102;57.138;-2.118;2022-12-11T08:46:06;2.40;;;0.35;;
29002;SDS011;16102;57.138;-2.118;2022-12-11T08:48:34;1.15;;;0.50;;
29002;SDS011;16102;57.138;-2.118;2022-12-11T08:51:03;2.67;;;0.60;;
29002;SDS011;16102;57.138;-2.118;2022-12-11T08:53:32;1.20;;;0.28;;
29002;SDS011;16102;57.138;-2.118;2022-12-11T08:56:00;0.65;;;0.30;;
29002;SDS011;16102;57.138;-2.118;2022-12-11T08:58:28;1.52;;;0.52;;
29002;SDS011;16102;57.138;-2.118;2022-12-11T09:00:55;0.90;;;0.35;;
29002;SDS011;16102;57.138;-2.118;2022-12-11T09:03:23;1.88;;;0.30;;
29002;SDS011;16102;57.138;-2.118;2022-12-11T09:05:50;1.55;;;0.70;;
29002;SDS011;16102;57.138;-2.118;2022-12-11T09:08:18;1.08;;;0.43;;
29002;SDS011;16102;57.138;-2.118;2022-12-11T09:10:45;2.88;;;0.63;;
29002;SDS011;16102;57.138;-2.118;2022-12-11T09:13:12;2.53;;;0.70;;
29002;SDS011;16102;57.138;-2.118;2022-12-11T09:15:39;4.40;;;1.20;;
29002;SDS011;16102;57.138;-2.118;2022-12-11T09:18:07;5.18;;;0.85;;
29002;SDS011;16102;57.138;-2.118;2022-12-11T09:20:34;4.55;;;0.95;;
29002;SDS011;16102;57.138;-2.118;2022-12-11T09:23:01;0.98;;;0.57;;
29002;SDS011;16102;57.138;-2.118;2022-12-11T09:25:28;5.18;;;0.60;;
29002;SDS011;16102;57.138;-2.118;2022-12-11T09:27:55;2.40;;;0.85;;
29002;SDS011;16102;57.138;-2.118;2022-12-11T09:30:23;0.60;;;0.47;;
29002;SDS011;16102;57.138;-2.118;2022-12-11T09:32:49;0.50;;;0.20;;
29002;SDS011;16102;57.138;-2.118;2022-12-11T09:35:18;2.13;;;0.60;;
29002;SDS011;16102;57.138;-2.118;2022-12-11T09:37:45;1.60;;;0.20;;
29002;SDS011;16102;57.138;-2.118;2022-12-11T09:40:12;0.98;;;0.40;;
29002;SDS011;16102;57.138;-2.118;2022-12-11T09:45:10;3.70;;;0.57;;
29002;SDS011;16102;57.138;-2.118;2022-12-11T09:47:41;0.95;;;0.50;;
29002;SDS011;16102;57.138;-2.118;2022-12-11T09:50:16;1.63;;;1.52;;
29002;SDS011;16102;57.138;-2.118;2022-12-11T09:55:23;1.38;;;0.22;;
29002;SDS011;16102;57.138;-2.118;2022-12-11T10:00:44;4.45;;;0.55;;
29002;SDS011;16102;57.138;-2.118;2022-12-11T10:14:21;0.47;;;0.30;;
29002;SDS011;16102;57.138;-2.118;2022-12-11T10:17:12;1.45;;;0.50;;
29002;SDS011;16102;57.138;-2.118;2022-12-11T10:19:45;2.88;;;0.95;;
29002;SDS011;16102;57.138;-2.118;2022-12-11T10:22:14;0.73;;;0.52;;
29002;SDS011;16102;57.138;-2.118;2022-12-11T10:25:02;1.65;;;0.30;;
29002;SDS011;16102;57.138;-2.118;2022-12-11T10:27:39;1.70;;;0.50;;
29002;SDS011;16102;57.138;-2.118;2022-12-11T10:30:17;2.97;;;0.60;;
29002;SDS011;16102;57.138;-2.118;2022-12-11T10:35:30;0.82;;;0.55;;
29002;SDS011;16102;57.138;-2.118;2022-12-11T10:38:19;3.10;;;0.25;;
29002;SDS011;16102;57.138;-2.118;2022-12-11T10:40:55;1.35;;;0.25;;
29002;SDS011;16102;57.138;-2.118;2022-12-11T10:43:35;1.55;;;0.40;;
29002;SDS011;16102;57.138;-2.118;2022-12-11T10:46:05;0.70;;;0.30;;
29002;SDS011;16102;57.138;-2.118;2022-12-11T10:49:17;0.20;;;0.20;;
29002;SDS011;16102;57.138;-2.118;2022-12-11T10:51:45;0.52;;;0.30;;
29002;SDS011;16102;57.138;-2.118;2022-12-11T10:54:28;0.63;;;0.30;;
29002;SDS011;16102;57.138;-2.118;2022-12-11T10:56:59;3.33;;;0.43;;
29002;SDS011;16102;57.138;-2.118;2022-12-11T10:59:47;1.20;;;0.63;;
29002;SDS011;16102;57.138;-2.118;2022-12-11T11:04:45;0.50;;;0.20;;
29002;SDS011;16102;57.138;-2.118;2022-12-11T11:07:14;0.85;;;0.50;;
29002;SDS011;16102;57.138;-2.118;2022-12-11T11:09:44;0.50;;;0.30;;
29002;SDS011;16102;57.138;-2.118;2022-12-11T11:12:22;1.48;;;0.70;;
29002;SDS011;16102;57.138;-2.118;2022-12-11T11:15:00;2.72;;;0.47;;
29002;SDS011;16102;57.138;-2.118;2022-12-11T11:17:30;1.65;;;0.43;;
29002;SDS011;16102;57.138;-2.118;2022-12-11T11:20:04;1.55;;;0.40;;
29002;SDS011;16102;57.138;-2.118;2022-12-11T11:22:43;0.20;;;0.20;;
29002;SDS011;16102;57.138;-2.118;2022-12-11T11:25:17;6.00;;;1.00;;
29002;SDS011;16102;57.138;-2.118;2022-12-11T11:27:50;1.63;;;0.50;;
29002;SDS011;16102;57.138;-2.118;2022-12-11T11:30:36;2.38;;;0.60;;
29002;SDS011;16102;57.138;-2.118;2022-12-11T11:33:13;1.08;;;0.38;;
29002;SDS011;16102;57.138;-2.118;2022-12-11T11:35:53;1.35;;;0.50;;
29002;SDS011;16102;57.138;-2.118;2022-12-11T11:41:14;0.90;;;0.52;;
29002;SDS011;16102;57.138;-2.118;2022-12-11T11:46:38;2.03;;;0.80;;
29002;SDS011;16102;57.138;-2.118;2022-12-11T11:58:21;1.13;;;0.22;;
29002;SDS011;16102;57.138;-2.118;2022-12-11T12:00:53;0.68;;;0.20;;
29002;SDS011;16102;57.138;-2.118;2022-12-11T12:03:21;1.13;;;0.30;;
29002;SDS011;16102;57.138;-2.118;2022-12-11T12:05:55;3.03;;;0.60;;
29002;SDS011;16102;57.138;-2.118;2022-12-11T12:13:55;2.17;;;0.40;;
29002;SDS011;16102;57.138;-2.118;2022-12-11T12:24:56;2.25;;;0.50;;
29002;SDS011;16102;57.138;-2.118;2022-12-11T12:27:52;0.75;;;0.20;;
29002;SDS011;16102;57.138;-2.118;2022-12-11T12:30:24;0.20;;;0.15;;
29002;SDS011;16102;57.138;-2.118;2022-12-11T12:36:01;0.57;;;0.28;;
29002;SDS011;16102;57.138;-2.118;2022-12-11T12:49:03;1.60;;;0.30;;
29002;SDS011;16102;57.138;-2.118;2022-12-11T12:51:38;1.25;;;0.47;;
29002;SDS011;16102;57.138;-2.118;2022-12-11T12:54:06;0.85;;;0.30;;
29002;SDS011;16102;57.138;-2.118;2022-12-11T12:56:37;0.47;;;0.40;;
29002;SDS011;16102;57.138;-2.118;2022-12-11T12:59:17;1.33;;;0.20;;
29002;SDS011;16102;57.138;-2.118;2022-12-11T13:01:46;0.75;;;0.40;;
29002;SDS011;16102;57.138;-2.118;2022-12-11T13:07:21;1.08;;;0.40;;
29002;SDS011;16102;57.138;-2.118;2022-12-11T13:09:59;0.75;;;0.30;;
29002;SDS011;16102;57.138;-2.118;2022-12-11T13:12:31;0.90;;;0.82;;
29002;SDS011;16102;57.138;-2.118;2022-12-11T13:17:49;2.17;;;1.02;;
29002;SDS011;16102;57.138;-2.118;2022-12-11T13:20:18;1.15;;;0.57;;
29002;SDS011;16102;57.138;-2.118;2022-12-11T13:22:52;0.57;;;0.38;;
29002;SDS011;16102;57.138;-2.118;2022-12-11T13:25:24;0.75;;;0.32;;
29002;SDS011;16102;57.138;-2.118;2022-12-11T13:28:05;1.83;;;0.40;;
29002;SDS011;16102;57.138;-2.118;2022-12-11T13:30:44;0.55;;;0.20;;
29002;SDS011;16102;57.138;-2.118;2022-12-11T13:33:27;1.63;;;0.50;;
29002;SDS011;16102;57.138;-2.118;2022-12-11T13:38:47;1.35;;;0.43;;
29002;SDS011;16102;57.138;-2.118;2022-12-11T13:41:24;0.30;;;0.20;;
29002;SDS011;16102;57.138;-2.118;2022-12-11T13:43:52;0.30;;;0.30;;
29002;SDS011;16102;57.138;-2.118;2022-12-11T13:46:22;1.50;;;0.38;;
29002;SDS011;16102;57.138;-2.118;2022-12-11T13:48:54;0.28;;;0.28;;
29002;SDS011;16102;57.138;-2.118;2022-12-11T13:51:27;2.05;;;0.20;;
29002;SDS011;16102;57.138;-2.118;2022-12-11T13:56:52;2.00;;;0.63;;
29002;SDS011;16102;57.138;-2.118;2022-12-11T13:59:47;0.30;;;0.30;;
29002;SDS011;16102;57.138;-2.118;2022-12-11T14:02:21;2.63;;;0.95;;
29002;SDS011;16102;57.138;-2.118;2022-12-11T14:04:56;0.90;;;0.50;;
29002;SDS011;16102;57.138;-2.118;2022-12-11T14:07:26;1.33;;;0.68;;
29002;SDS011;16102;57.138;-2.118;2022-12-11T14:10:02;8.45;;;1.60;;
29002;SDS011;16102;57.138;-2.118;2022-12-11T14:12:35;0.65;;;0.50;;
29002;SDS011;16102;57.138;-2.118;2022-12-11T14:15:02;0.75;;;0.45;;
29002;SDS011;16102;57.138;-2.118;2022-12-11T14:17:31;0.63;;;0.57;;
29002;SDS011;16102;57.138;-2.118;2022-12-11T14:20:00;1.45;;;0.40;;
29002;SDS011;16102;57.138;-2.118;2022-12-11T14:22:32;1.80;;;0.55;;
29002;SDS011;16102;57.138;-2.118;2022-12-11T14:25:00;1.38;;;0.63;;
29002;SDS011;16102;57.138;-2.118;2022-12-11T14:27:46;0.85;;;0.65;;
29002;SDS011;16102;57.138;-2.118;2022-12-11T14:30:19;1.50;;;0.65;;
29002;SDS011;16102;57.138;-2.118;2022-12-11T14:32:51;3.33;;;1.85;;
29002;SDS011;16102;57.138;-2.118;2022-12-11T14:35:29;2.40;;;1.13;;
29002;SDS011;16102;57.138;-2.118;2022-12-11T14:38:07;3.63;;;1.33;;
29002;SDS011;16102;57.138;-2.118;2022-12-11T14:40:42;2.78;;;1.48;;
29002;SDS011;16102;57.138;-2.118;2022-12-11T14:43:17;3.25;;;1.67;;
29002;SDS011;16102;57.138;-2.118;2022-12-11T14:46:14;5.88;;;1.35;;
29002;SDS011;16102;57.138;-2.118;2022-12-11T14:48:47;2.05;;;1.20;;
29002;SDS011;16102;57.138;-2.118;2022-12-11T14:51:27;5.45;;;1.23;;
29002;SDS011;16102;57.138;-2.118;2022-12-11T14:53:59;2.40;;;0.70;;
29002;SDS011;16102;57.138;-2.118;2022-12-11T14:56:26;0.38;;;0.30;;
29002;SDS011;16102;57.138;-2.118;2022-12-11T14:58:59;0.30;;;0.25;;
29002;SDS011;16102;57.138;-2.118;2022-12-11T15:01:31;2.35;;;0.90;;
29002;SDS011;16102;57.138;-2.118;2022-12-11T15:04:04;2.72;;;1.20;;
29002;SDS011;16102;57.138;-2.118;2022-12-11T15:06:42;2.28;;;1.35;;
29002;SDS011;16102;57.138;-2.118;2022-12-11T15:11:47;5.60;;;1.40;;
29002;SDS011;16102;57.138;-2.118;2022-12-11T15:14:15;5.28;;;1.83;;
29002;SDS011;16102;57.138;-2.118;2022-12-11T15:16:44;3.03;;;1.30;;
29002;SDS011;16102;57.138;-2.118;2022-12-11T15:19:20;1.30;;;0.90;;
29002;SDS011;16102;57.138;-2.118;2022-12-11T15:21:54;3.38;;;1.08;;
29002;SDS011;16102;57.138;-2.118;2022-12-11T15:24:30;3.25;;;1.48;;
29002;SDS011;16102;57.138;-2.118;2022-12-11T15:27:00;9.55;;;4.35;;
29002;SDS011;16102;57.138;-2.118;2022-12-11T15:29:37;5.90;;;2.42;;
29002;SDS011;16102;57.138;-2.118;2022-12-11T15:34:45;3.65;;;1.42;;
29002;SDS011;16102;57.138;-2.118;2022-12-11T15:39:44;3.67;;;2.13;;
29002;SDS011;16102;57.138;-2.118;2022-12-11T15:42:15;4.93;;;2.30;;
29002;SDS011;16102;57.138;-2.118;2022-12-11T15:44:58;3.80;;;2.42;;
29002;SDS011;16102;57.138;-2.118;2022-12-11T15:47:26;7.88;;;2.70;;
29002;SDS011;16102;57.138;-2.118;2022-12-11T15:49:56;4.78;;;1.38;;
29002;SDS011;16102;57.138;-2.118;2022-12-11T15:52:28;3.97;;;1.92;;
29002;SDS011;16102;57.138;-2.118;2022-12-11T15:54:54;4.22;;;2.20;;
29002;SDS011;16102;57.138;-2.118;2022-12-11T15:57:21;5.15;;;2.42;;
29002;SDS011;16102;57.138;-2.118;2022-12-11T15:59:50;7.45;;;3.60;;
29002;SDS011;16102;57.138;-2.118;2022-12-11T16:02:19;11.35;;;6.32;;
29002;SDS011;16102;57.138;-2.118;2022-12-11T16:04:47;9.10;;;4.43;;
29002;SDS011;16102;57.138;-2.118;2022-12-11T16:07:18;6.28;;;3.42;;
29002;SDS011;16102;57.138;-2.118;2022-12-11T16:09:48;10.38;;;3.97;;
29002;SDS011;16102;57.138;-2.118;2022-12-11T16:12:15;8.38;;;4.82;;
29002;SDS011;16102;57.138;-2.118;2022-12-11T16:14:42;9.95;;;4.15;;
29002;SDS011;16102;57.138;-2.118;2022-12-11T16:17:11;17.15;;;8.95;;
29002;SDS011;16102;57.138;-2.118;2022-12-11T16:19:40;11.23;;;6.10;;
29002;SDS011;16102;57.138;-2.118;2022-12-11T16:22:09;11.65;;;5.30;;
29002;SDS011;16102;57.138;-2.118;2022-12-11T16:24:36;5.90;;;2.92;;
29002;SDS011;16102;57.138;-2.118;2022-12-11T16:27:04;4.22;;;2.70;;
29002;SDS011;16102;57.138;-2.118;2022-12-11T16:29:32;4.63;;;2.60;;
29002;SDS011;16102;57.138;-2.118;2022-12-11T16:32:04;10.55;;;4.43;;
29002;SDS011;16102;57.138;-2.118;2022-12-11T16:34:34;7.30;;;3.42;;
29002;SDS011;16102;57.138;-2.118;2022-12-11T16:37:03;10.73;;;5.10;;
29002;SDS011;16102;57.138;-2.118;2022-12-11T16:39:31;6.45;;;3.78;;
29002;SDS011;16102;57.138;-2.118;2022-12-11T16:41:58;10.27;;;4.28;;